createdAt,value
2017-04-15T00:00:07.822Z,9.5
2017-04-15T00:00:18.151Z,9.5
2017-04-15T00:00:28.149Z,9.5
2017-04-15T00:00:38.141Z,9.5
2017-04-15T00:00:48.134Z,9.5
2017-04-15T00:00:58.129Z,9.5
2017-04-15T00:01:08.119Z,9.5
2017-04-15T00:01:18.118Z,9.5
2017-04-15T00:01:28.110Z,9.5
2017-04-15T00:01:38.105Z,9.5
2017-04-15T00:01:48.486Z,9.5
2017-04-15T00:01:58.089Z,9.5
2017-04-15T00:02:08.438Z,9.5
2017-04-15T00:02:18.082Z,9.5
2017-04-15T00:02:28.075Z,9.5
2017-04-15T00:02:38.070Z,9.5
2017-04-15T00:02:47.728Z,9.5
2017-04-15T00:02:58.055Z,9.5
2017-04-15T00:03:08.047Z,9.5
2017-04-15T00:03:18.047Z,9.6
2017-04-15T00:03:28.039Z,9.5
2017-04-15T00:03:38.032Z,9.5
2017-04-15T00:03:48.037Z,9.6
2017-04-15T00:03:58.018Z,9.6
2017-04-15T00:04:08.014Z,9.6
2017-04-15T00:04:18.007Z,9.6
2017-04-15T00:04:28.001Z,9.6
2017-04-15T00:04:37.993Z,9.6
2017-04-15T00:04:47.987Z,9.5
2017-04-15T00:04:57.987Z,9.5
2017-04-15T00:05:08.391Z,9.5
2017-04-15T00:05:17.971Z,9.5
2017-04-15T00:05:27.967Z,9.5
2017-04-15T00:05:37.961Z,9.5
2017-04-15T00:05:47.957Z,9.5
2017-04-15T00:05:57.962Z,9.6
2017-04-15T00:06:07.607Z,9.5
2017-04-15T00:06:17.939Z,9.5
2017-04-15T00:06:27.931Z,9.5
2017-04-15T00:06:37.923Z,9.5
2017-04-15T00:06:48.171Z,9.5
2017-04-15T00:06:57.911Z,9.5
2017-04-15T00:07:07.902Z,9.5
2017-04-15T00:07:17.563Z,9.5
2017-04-15T00:07:27.894Z,9.5
2017-04-15T00:07:37.555Z,9.5
2017-04-15T00:07:47.882Z,9.5
2017-04-15T00:07:57.542Z,9.5
2017-04-15T00:08:07.203Z,9.5
2017-04-15T00:08:17.869Z,9.5
2017-04-15T00:08:27.857Z,9.5
2017-04-15T00:08:37.858Z,9.6
2017-04-15T00:08:47.850Z,9.5
2017-04-15T00:08:57.844Z,9.5
2017-04-15T00:09:07.834Z,9.5
2017-04-15T00:09:17.827Z,9.6
2017-04-15T00:09:27.821Z,9.6
2017-04-15T00:09:37.818Z,9.6
2017-04-15T00:09:47.867Z,9.6
2017-04-15T00:09:57.804Z,9.6
2017-04-15T00:10:07.799Z,9.6
2017-04-15T00:10:18.161Z,9.5
2017-04-15T00:10:27.785Z,9.5
2017-04-15T00:10:37.797Z,9.5
2017-04-15T00:10:47.775Z,9.5
2017-04-15T00:10:57.770Z,9.5
2017-04-15T00:11:07.436Z,9.5
2017-04-15T00:11:17.755Z,9.5
2017-04-15T00:11:27.082Z,9.5
2017-04-15T00:11:37.747Z,9.5
2017-04-15T00:11:47.988Z,9.5
2017-04-15T00:11:57.874Z,9.5
2017-04-15T00:12:07.390Z,9.5
2017-04-15T00:12:17.722Z,9.5
2017-04-15T00:12:27.714Z,9.5
2017-04-15T00:12:37.708Z,9.5
2017-04-15T00:12:47.698Z,9.6
2017-04-15T00:12:57.702Z,9.6
2017-04-15T00:13:07.689Z,9.6
2017-04-15T00:13:17.682Z,9.6
2017-04-15T00:13:27.676Z,9.5
2017-04-15T00:13:37.671Z,9.5
2017-04-15T00:13:47.666Z,9.5
2017-04-15T00:13:57.663Z,9.5
2017-04-15T00:14:06.985Z,9.5
2017-04-15T00:14:16.979Z,9.5
2017-04-15T00:14:27.641Z,9.5
2017-04-15T00:14:37.300Z,9.5
2017-04-15T00:14:47.634Z,9.5
2017-04-15T00:14:57.290Z,9.5
2017-04-15T00:15:07.621Z,9.5
2017-04-15T00:15:16.943Z,9.5
2017-04-15T00:15:27.606Z,9.5
2017-04-15T00:15:37.597Z,9.5
2017-04-15T00:15:46.922Z,9.5
2017-04-15T00:15:57.590Z,9.5
2017-04-15T00:16:07.271Z,9.5
2017-04-15T00:16:16.905Z,9.5
2017-04-15T00:16:27.572Z,9.5
2017-04-15T00:16:37.562Z,9.5
2017-04-15T00:16:47.222Z,9.5
2017-04-15T00:16:57.553Z,9.5
2017-04-15T00:17:07.545Z,9.5
2017-04-15T00:17:17.539Z,9.5
2017-04-15T00:17:27.533Z,9.5
2017-04-15T00:17:37.905Z,9.5
2017-04-15T00:17:47.519Z,9.5
2017-04-15T00:17:57.185Z,9.5
2017-04-15T00:18:06.840Z,9.5
2017-04-15T00:18:17.506Z,9.5
2017-04-15T00:18:27.497Z,9.5
2017-04-15T00:18:37.491Z,9.6
2017-04-15T00:18:47.153Z,9.5
2017-04-15T00:18:57.478Z,9.5
2017-04-15T00:19:07.477Z,9.5
2017-04-15T00:19:17.467Z,9.5
2017-04-15T00:19:27.459Z,9.5
2017-04-15T00:19:37.456Z,9.5
2017-04-15T00:19:47.449Z,9.5
2017-04-15T00:19:57.445Z,9.6
2017-04-15T00:20:06.772Z,9.5
2017-04-15T00:20:17.433Z,9.5
2017-04-15T00:20:27.093Z,9.5
2017-04-15T00:20:37.775Z,9.5
2017-04-15T00:20:47.418Z,9.6
2017-04-15T00:20:57.406Z,9.5
2017-04-15T00:21:07.069Z,9.6
2017-04-15T00:21:17.403Z,9.6
2017-04-15T00:21:27.394Z,9.6
2017-04-15T00:21:37.386Z,9.6
2017-04-15T00:21:47.380Z,9.6
2017-04-15T00:21:57.373Z,9.6
2017-04-15T00:22:07.365Z,9.6
2017-04-15T00:22:17.360Z,9.6
2017-04-15T00:22:27.353Z,9.6
2017-04-15T00:22:37.348Z,9.6
2017-04-15T00:22:47.010Z,9.6
2017-04-15T00:22:57.336Z,9.6
2017-04-15T00:23:07.339Z,9.5
2017-04-15T00:23:17.320Z,9.5
2017-04-15T00:23:27.316Z,9.6
2017-04-15T00:23:37.318Z,9.6
2017-04-15T00:23:47.310Z,9.6
2017-04-15T00:23:57.304Z,9.6
2017-04-15T00:24:06.958Z,9.6
2017-04-15T00:24:17.290Z,9.6
2017-04-15T00:24:27.284Z,9.6
2017-04-15T00:24:37.277Z,9.6
2017-04-15T00:24:47.270Z,9.6
2017-04-15T00:24:57.266Z,9.6
2017-04-15T00:25:06.923Z,9.6
2017-04-15T00:25:17.253Z,9.6
2017-04-15T00:25:27.251Z,9.6
2017-04-15T00:25:37.244Z,9.6
2017-04-15T00:25:47.593Z,9.6
2017-04-15T00:25:57.227Z,9.6
2017-04-15T00:26:07.223Z,9.6
2017-04-15T00:26:17.219Z,9.6
2017-04-15T00:26:27.242Z,9.6
2017-04-15T00:26:37.205Z,9.6
2017-04-15T00:26:46.780Z,9.6
2017-04-15T00:26:57.193Z,9.6
2017-04-15T00:27:07.194Z,9.6
2017-04-15T00:27:17.181Z,9.6
2017-04-15T00:27:27.176Z,9.6
2017-04-15T00:27:36.499Z,9.6
2017-04-15T00:27:47.162Z,9.6
2017-04-15T00:27:57.155Z,9.6
2017-04-15T00:28:06.820Z,9.6
2017-04-15T00:28:16.812Z,9.6
2017-04-15T00:28:27.140Z,9.6
2017-04-15T00:28:37.134Z,9.6
2017-04-15T00:28:47.128Z,9.6
2017-04-15T00:28:57.121Z,9.6
2017-04-15T00:29:07.122Z,9.6
2017-04-15T00:29:17.109Z,9.6
2017-04-15T00:29:27.105Z,9.6
2017-04-15T00:29:37.095Z,9.6
2017-04-15T00:29:47.091Z,9.6
2017-04-15T00:29:57.094Z,9.6
2017-04-15T00:30:07.080Z,9.6
2017-04-15T00:30:17.071Z,9.6
2017-04-15T00:30:27.069Z,9.6
2017-04-15T00:30:37.062Z,9.6
2017-04-15T00:30:47.055Z,9.6
2017-04-15T00:30:57.253Z,9.6
2017-04-15T00:31:06.710Z,9.6
2017-04-15T00:31:17.039Z,9.6
2017-04-15T00:31:26.695Z,9.6
2017-04-15T00:31:36.693Z,9.6
2017-04-15T00:31:47.320Z,9.7
2017-04-15T00:31:57.012Z,9.7
2017-04-15T00:32:07.009Z,9.7
2017-04-15T00:32:16.999Z,9.7
2017-04-15T00:32:26.993Z,9.7
2017-04-15T00:32:36.989Z,9.7
2017-04-15T00:32:46.985Z,9.7
2017-04-15T00:32:57.333Z,9.7
2017-04-15T00:33:06.966Z,9.7
2017-04-15T00:33:16.968Z,9.7
2017-04-15T00:33:26.624Z,9.7
2017-04-15T00:33:36.955Z,9.7
2017-04-15T00:33:46.945Z,9.7
2017-04-15T00:33:56.940Z,9.7
2017-04-15T00:34:06.601Z,9.7
2017-04-15T00:34:16.611Z,9.7
2017-04-15T00:34:26.924Z,9.7
2017-04-15T00:34:36.917Z,9.6
2017-04-15T00:34:46.908Z,9.6
2017-04-15T00:34:56.908Z,9.6
2017-04-15T00:35:06.901Z,9.6
2017-04-15T00:35:16.895Z,9.6
2017-04-15T00:35:26.885Z,9.6
2017-04-15T00:35:36.882Z,9.6
2017-04-15T00:35:46.875Z,9.6
2017-04-15T00:35:56.867Z,9.7
2017-04-15T00:36:06.530Z,9.7
2017-04-15T00:36:16.859Z,9.6
2017-04-15T00:36:26.850Z,9.6
2017-04-15T00:36:36.844Z,9.7
2017-04-15T00:36:46.419Z,9.7
2017-04-15T00:36:56.834Z,9.7
2017-04-15T00:37:06.827Z,9.7
2017-04-15T00:37:16.821Z,9.7
2017-04-15T00:37:26.817Z,9.7
2017-04-15T00:37:36.805Z,9.7
2017-04-15T00:37:46.850Z,9.7
2017-04-15T00:37:56.795Z,9.7
2017-04-15T00:38:06.793Z,9.7
2017-04-15T00:38:16.785Z,9.7
2017-04-15T00:38:26.782Z,9.7
2017-04-15T00:38:36.819Z,9.7
2017-04-15T00:38:47.157Z,9.6
2017-04-15T00:38:56.762Z,9.7
2017-04-15T00:39:06.759Z,9.7
2017-04-15T00:39:16.750Z,9.6
2017-04-15T00:39:27.110Z,9.6
2017-04-15T00:39:36.069Z,9.7
2017-04-15T00:39:46.731Z,9.6
2017-04-15T00:39:56.723Z,9.6
2017-04-15T00:40:06.719Z,9.7
2017-04-15T00:40:16.716Z,9.7
2017-04-15T00:40:26.705Z,9.7
2017-04-15T00:40:36.700Z,9.7
2017-04-15T00:40:46.696Z,9.7
2017-04-15T00:40:56.687Z,9.7
2017-04-15T00:41:06.683Z,9.7
2017-04-15T00:41:16.680Z,9.7
2017-04-15T00:41:26.690Z,9.7
2017-04-15T00:41:36.665Z,9.7
2017-04-15T00:41:46.376Z,9.7
2017-04-15T00:41:56.320Z,9.7
2017-04-15T00:42:06.820Z,9.7
2017-04-15T00:42:16.646Z,9.7
2017-04-15T00:42:26.305Z,9.7
2017-04-15T00:42:36.295Z,9.7
2017-04-15T00:42:46.626Z,9.7
2017-04-15T00:42:56.968Z,9.7
2017-04-15T00:43:06.620Z,9.7
2017-04-15T00:43:16.603Z,9.7
2017-04-15T00:43:26.601Z,9.7
2017-04-15T00:43:36.596Z,9.7
2017-04-15T00:43:46.590Z,9.7
2017-04-15T00:43:56.583Z,9.7
2017-04-15T00:44:06.583Z,9.7
2017-04-15T00:44:16.572Z,9.7
2017-04-15T00:44:26.563Z,9.7
2017-04-15T00:44:36.556Z,9.7
2017-04-15T00:44:46.555Z,9.7
2017-04-15T00:44:56.547Z,9.7
2017-04-15T00:45:06.535Z,9.7
2017-04-15T00:45:16.536Z,9.7
2017-04-15T00:45:26.526Z,9.7
2017-04-15T00:45:36.520Z,9.7
2017-04-15T00:45:46.517Z,9.7
2017-04-15T00:45:56.511Z,9.7
2017-04-15T00:46:06.169Z,9.7
2017-04-15T00:46:16.499Z,9.7
2017-04-15T00:46:26.490Z,9.7
2017-04-15T00:46:36.485Z,9.7
2017-04-15T00:46:46.479Z,9.7
2017-04-15T00:46:56.141Z,9.7
2017-04-15T00:47:06.469Z,9.7
2017-04-15T00:47:16.462Z,9.7
2017-04-15T00:47:26.456Z,9.7
2017-04-15T00:47:36.448Z,9.7
2017-04-15T00:47:46.448Z,9.7
2017-04-15T00:47:56.438Z,9.7
2017-04-15T00:48:06.444Z,9.8
2017-04-15T00:48:16.428Z,9.8
2017-04-15T00:48:26.417Z,9.8
2017-04-15T00:48:36.084Z,9.8
2017-04-15T00:48:46.410Z,9.8
2017-04-15T00:48:56.404Z,9.8
2017-04-15T00:49:06.397Z,9.8
2017-04-15T00:49:16.422Z,9.8
2017-04-15T00:49:26.048Z,9.8
2017-04-15T00:49:36.378Z,9.8
2017-04-15T00:49:46.375Z,9.8
2017-04-15T00:49:56.366Z,9.8
2017-04-15T00:50:06.359Z,9.8
2017-04-15T00:50:16.355Z,9.8
2017-04-15T00:50:26.346Z,9.8
2017-04-15T00:50:36.341Z,9.8
2017-04-15T00:50:46.339Z,9.8
2017-04-15T00:50:56.330Z,9.8
2017-04-15T00:51:06.326Z,9.8
2017-04-15T00:51:16.320Z,9.8
2017-04-15T00:51:26.312Z,9.8
2017-04-15T00:51:35.974Z,9.8
2017-04-15T00:51:46.304Z,9.8
2017-04-15T00:51:56.299Z,9.8
2017-04-15T00:52:06.287Z,9.8
2017-04-15T00:52:16.143Z,9.8
2017-04-15T00:52:25.616Z,9.8
2017-04-15T00:52:36.273Z,9.8
2017-04-15T00:52:46.265Z,9.8
2017-04-15T00:52:56.258Z,9.8
2017-04-15T00:53:06.252Z,9.8
2017-04-15T00:53:16.248Z,9.8
2017-04-15T00:53:26.239Z,9.8
2017-04-15T00:53:36.235Z,9.8
2017-04-15T00:53:45.894Z,9.8
2017-04-15T00:53:56.224Z,9.8
2017-04-15T00:54:05.883Z,9.8
2017-04-15T00:54:16.211Z,9.8
2017-04-15T00:54:26.301Z,9.8
2017-04-15T00:54:36.219Z,9.8
2017-04-15T00:54:46.193Z,9.8
2017-04-15T00:54:56.184Z,9.8
2017-04-15T00:55:06.178Z,9.8
2017-04-15T00:55:15.840Z,9.8
2017-04-15T00:55:26.169Z,9.8
2017-04-15T00:55:36.533Z,9.8
2017-04-15T00:55:46.191Z,9.8
2017-04-15T00:55:56.155Z,9.8
2017-04-15T00:56:06.149Z,9.8
2017-04-15T00:56:16.136Z,9.9
2017-04-15T00:56:26.134Z,9.9
2017-04-15T00:56:36.128Z,9.9
2017-04-15T00:56:46.721Z,9.9
2017-04-15T00:56:56.116Z,9.8
2017-04-15T00:57:05.435Z,9.9
2017-04-15T00:57:16.103Z,9.9
2017-04-15T00:57:26.097Z,9.9
2017-04-15T00:57:36.091Z,9.9
2017-04-15T00:57:46.103Z,9.9
2017-04-15T00:57:56.075Z,9.9
2017-04-15T00:58:05.736Z,9.9
2017-04-15T00:58:16.070Z,9.9
2017-04-15T00:58:26.062Z,9.9
2017-04-15T00:58:36.054Z,9.9
2017-04-15T00:58:46.052Z,9.9
2017-04-15T00:58:56.047Z,9.9
2017-04-15T00:59:06.041Z,9.9
2017-04-15T00:59:16.027Z,9.9
2017-04-15T00:59:26.023Z,9.9
2017-04-15T00:59:36.019Z,9.9
2017-04-15T00:59:45.677Z,9.9
2017-04-15T00:59:55.671Z,9.9
2017-04-15T01:00:06.002Z,9.9
2017-04-15T01:00:16.000Z,9.9
2017-04-15T01:00:26.345Z,9.9
2017-04-15T01:00:35.983Z,9.9
2017-04-15T01:00:45.643Z,9.9
2017-04-15T01:00:55.969Z,9.9
2017-04-15T01:01:05.631Z,9.9
2017-04-15T01:01:16.014Z,9.9
2017-04-15T01:01:25.961Z,9.9
2017-04-15T01:01:35.944Z,9.9
2017-04-15T01:01:46.244Z,9.9
2017-04-15T01:01:55.933Z,9.9
2017-04-15T01:02:05.591Z,9.9
2017-04-15T01:02:15.923Z,9.9
2017-04-15T01:02:25.920Z,9.9
2017-04-15T01:02:35.911Z,9.9
2017-04-15T01:02:45.567Z,9.9
2017-04-15T01:02:55.899Z,9.9
2017-04-15T01:03:05.896Z,9.9
2017-04-15T01:03:15.554Z,9.9
2017-04-15T01:03:25.546Z,9.9
2017-04-15T01:03:35.875Z,9.9
2017-04-15T01:03:45.199Z,9.9
2017-04-15T01:03:55.862Z,10
2017-04-15T01:04:05.524Z,9.9
2017-04-15T01:04:15.519Z,10
2017-04-15T01:04:25.515Z,10
2017-04-15T01:04:35.836Z,10
2017-04-15T01:04:45.832Z,10
2017-04-15T01:04:55.833Z,10
2017-04-15T01:05:05.823Z,9.9
2017-04-15T01:05:15.816Z,9.9
2017-04-15T01:05:25.813Z,10
2017-04-15T01:05:35.806Z,10
2017-04-15T01:05:45.463Z,9.9
2017-04-15T01:05:55.795Z,9.9
2017-04-15T01:06:05.456Z,10
2017-04-15T01:06:15.781Z,10
2017-04-15T01:06:25.772Z,10
2017-04-15T01:06:35.435Z,10
2017-04-15T01:06:46.012Z,10
2017-04-15T01:06:55.424Z,10
2017-04-15T01:07:05.754Z,10
2017-04-15T01:07:15.746Z,10
2017-04-15T01:07:25.739Z,10
2017-04-15T01:07:35.733Z,10
2017-04-15T01:07:45.390Z,10
2017-04-15T01:07:55.720Z,10
2017-04-15T01:08:05.381Z,10
2017-04-15T01:08:15.708Z,10
2017-04-15T01:08:25.722Z,10
2017-04-15T01:08:35.700Z,10
2017-04-15T01:08:45.357Z,10
2017-04-15T01:08:55.685Z,10
2017-04-15T01:09:05.732Z,10
2017-04-15T01:09:15.675Z,10
2017-04-15T01:09:25.667Z,10
2017-04-15T01:09:35.663Z,10
2017-04-15T01:09:45.319Z,10
2017-04-15T01:09:55.649Z,10
2017-04-15T01:10:05.643Z,10
2017-04-15T01:10:15.465Z,10
2017-04-15T01:10:25.631Z,10
2017-04-15T01:10:35.629Z,10
2017-04-15T01:10:45.621Z,10.1
2017-04-15T01:10:55.615Z,10
2017-04-15T01:11:05.611Z,10
2017-04-15T01:11:15.266Z,10
2017-04-15T01:11:25.595Z,10
2017-04-15T01:11:35.599Z,10
2017-04-15T01:11:45.935Z,10
2017-04-15T01:11:55.576Z,10
2017-04-15T01:12:05.592Z,10
2017-04-15T01:12:15.568Z,10.1
2017-04-15T01:12:25.563Z,10.1
2017-04-15T01:12:35.560Z,10.1
2017-04-15T01:12:45.549Z,10
2017-04-15T01:12:55.540Z,10
2017-04-15T01:13:05.536Z,10
2017-04-15T01:13:15.531Z,10
2017-04-15T01:13:25.523Z,10
2017-04-15T01:13:35.515Z,10
2017-04-15T01:13:45.509Z,10
2017-04-15T01:13:55.170Z,10
2017-04-15T01:14:05.500Z,10.1
2017-04-15T01:14:15.497Z,10.1
2017-04-15T01:14:25.155Z,10.1
2017-04-15T01:14:35.483Z,10.1
2017-04-15T01:14:45.143Z,10.1
2017-04-15T01:14:55.470Z,10.1
2017-04-15T01:15:05.463Z,10.1
2017-04-15T01:15:15.458Z,10.1
2017-04-15T01:15:25.120Z,10.1
2017-04-15T01:15:34.777Z,10.1
2017-04-15T01:15:45.442Z,10.1
2017-04-15T01:15:55.623Z,10.1
2017-04-15T01:16:05.429Z,10.1
2017-04-15T01:16:15.086Z,10.1
2017-04-15T01:16:25.421Z,10.1
2017-04-15T01:16:35.409Z,10.1
2017-04-15T01:16:45.407Z,10.1
2017-04-15T01:16:55.063Z,10.1
2017-04-15T01:17:05.749Z,10.1
2017-04-15T01:17:15.049Z,10.1
2017-04-15T01:17:25.377Z,10.1
2017-04-15T01:17:35.375Z,10.1
2017-04-15T01:17:46.106Z,10.1
2017-04-15T01:17:55.360Z,10.1
2017-04-15T01:18:05.359Z,10.1
2017-04-15T01:18:15.013Z,10.1
2017-04-15T01:18:25.344Z,10.1
2017-04-15T01:18:35.338Z,10.1
2017-04-15T01:18:44.996Z,10.1
2017-04-15T01:18:55.679Z,10.1
2017-04-15T01:19:05.677Z,10.1
2017-04-15T01:19:15.315Z,10.1
2017-04-15T01:19:25.309Z,10.1
2017-04-15T01:19:35.304Z,10.1
2017-04-15T01:19:44.959Z,10.1
2017-04-15T01:19:55.294Z,10.1
2017-04-15T01:20:05.287Z,10.1
2017-04-15T01:20:15.647Z,10.1
2017-04-15T01:20:25.820Z,10.1
2017-04-15T01:20:35.266Z,10.1
2017-04-15T01:20:45.256Z,10.1
2017-04-15T01:20:54.919Z,10.1
2017-04-15T01:21:04.922Z,10.1
2017-04-15T01:21:15.244Z,10.1
2017-04-15T01:21:25.239Z,10.1
2017-04-15T01:21:35.232Z,10.1
2017-04-15T01:21:45.471Z,10.1
2017-04-15T01:21:55.227Z,10.1
2017-04-15T01:22:05.212Z,10.1
2017-04-15T01:22:15.209Z,10.1
2017-04-15T01:22:25.198Z,10.1
2017-04-15T01:22:35.195Z,10.1
2017-04-15T01:22:44.521Z,10.1
2017-04-15T01:22:55.189Z,10.1
2017-04-15T01:23:05.187Z,10.1
2017-04-15T01:23:15.171Z,10.1
2017-04-15T01:23:24.825Z,10.1
2017-04-15T01:23:35.158Z,10.1
2017-04-15T01:23:45.150Z,10.1
2017-04-15T01:23:55.149Z,10.1
2017-04-15T01:24:05.141Z,10.1
2017-04-15T01:24:15.136Z,10.1
2017-04-15T01:24:25.129Z,10.1
2017-04-15T01:24:35.121Z,10.1
2017-04-15T01:24:45.117Z,10.1
2017-04-15T01:24:54.772Z,10.1
2017-04-15T01:25:04.772Z,10.1
2017-04-15T01:25:14.762Z,10.1
2017-04-15T01:25:25.093Z,10.1
2017-04-15T01:25:35.083Z,10.1
2017-04-15T01:25:45.083Z,10.1
2017-04-15T01:25:55.073Z,10.1
2017-04-15T01:26:05.068Z,10.1
2017-04-15T01:26:14.729Z,10.1
2017-04-15T01:26:25.076Z,10.1
2017-04-15T01:26:35.052Z,10.1
2017-04-15T01:26:44.963Z,10.1
2017-04-15T01:26:55.038Z,10.1
2017-04-15T01:27:04.699Z,10.1
2017-04-15T01:27:15.043Z,10.1
2017-04-15T01:27:25.025Z,10.1
2017-04-15T01:27:35.026Z,10.1
2017-04-15T01:27:44.670Z,10.1
2017-04-15T01:27:55.007Z,10.1
2017-04-15T01:28:04.997Z,10.1
2017-04-15T01:28:14.990Z,10.1
2017-04-15T01:28:24.988Z,10.1
2017-04-15T01:28:34.979Z,10.1
2017-04-15T01:28:44.972Z,10.1
2017-04-15T01:28:54.970Z,10.1
2017-04-15T01:29:04.963Z,10.1
2017-04-15T01:29:14.955Z,10.1
2017-04-15T01:29:24.617Z,10.1
2017-04-15T01:29:34.966Z,10.1
2017-04-15T01:29:44.602Z,10.1
2017-04-15T01:29:54.927Z,10.1
2017-04-15T01:30:04.926Z,10.1
2017-04-15T01:30:14.586Z,10.1
2017-04-15T01:30:24.912Z,10.1
2017-04-15T01:30:34.575Z,10.1
2017-04-15T01:30:44.903Z,10.1
2017-04-15T01:30:54.898Z,10.1
2017-04-15T01:31:04.896Z,10.1
2017-04-15T01:31:14.556Z,10.1
2017-04-15T01:31:24.547Z,10.1
2017-04-15T01:31:34.871Z,10.1
2017-04-15T01:31:45.480Z,10.1
2017-04-15T01:31:54.859Z,10.1
2017-04-15T01:32:04.853Z,10.1
2017-04-15T01:32:14.847Z,10.1
2017-04-15T01:32:24.841Z,10.1
2017-04-15T01:32:34.501Z,10.1
2017-04-15T01:32:44.904Z,10.1
2017-04-15T01:32:54.822Z,10.1
2017-04-15T01:33:04.823Z,10.1
2017-04-15T01:33:14.809Z,10.1
2017-04-15T01:33:24.807Z,10.1
2017-04-15T01:33:34.799Z,10.1
2017-04-15T01:33:44.797Z,10.1
2017-04-15T01:33:55.118Z,10.1
2017-04-15T01:34:04.782Z,10.1
2017-04-15T01:34:14.776Z,10.1
2017-04-15T01:34:24.767Z,10.1
2017-04-15T01:34:34.764Z,10.1
2017-04-15T01:34:44.761Z,10.1
2017-04-15T01:34:54.752Z,10.1
2017-04-15T01:35:04.750Z,10.1
2017-04-15T01:35:14.740Z,10.1
2017-04-15T01:35:24.411Z,10.1
2017-04-15T01:35:34.731Z,10.1
2017-04-15T01:35:44.717Z,10.1
2017-04-15T01:35:54.381Z,10.1
2017-04-15T01:36:04.378Z,10.1
2017-04-15T01:36:14.704Z,10.1
2017-04-15T01:36:24.696Z,10.1
2017-04-15T01:36:34.692Z,10.1
2017-04-15T01:36:44.400Z,10.1
2017-04-15T01:36:54.685Z,10.1
2017-04-15T01:37:04.339Z,10.1
2017-04-15T01:37:14.685Z,10.1
2017-04-15T01:37:24.662Z,10.1
2017-04-15T01:37:34.655Z,10.1
2017-04-15T01:37:44.652Z,10.1
2017-04-15T01:37:54.645Z,10.1
2017-04-15T01:38:04.304Z,10.1
2017-04-15T01:38:14.631Z,10.1
2017-04-15T01:38:24.629Z,10.1
2017-04-15T01:38:34.620Z,10.1
2017-04-15T01:38:44.613Z,10.1
2017-04-15T01:38:54.607Z,10.1
2017-04-15T01:39:04.603Z,10.1
2017-04-15T01:39:14.262Z,10.1
2017-04-15T01:39:24.591Z,10.1
2017-04-15T01:39:34.586Z,10.1
2017-04-15T01:39:44.241Z,10.1
2017-04-15T01:39:54.580Z,10.1
2017-04-15T01:40:03.897Z,10.1
2017-04-15T01:40:14.558Z,10.1
2017-04-15T01:40:24.221Z,10.1
2017-04-15T01:40:34.547Z,10.1
2017-04-15T01:40:44.544Z,10.1
2017-04-15T01:40:54.539Z,10.1
2017-04-15T01:41:04.532Z,10.1
2017-04-15T01:41:14.530Z,10.1
2017-04-15T01:41:24.516Z,10.1
2017-04-15T01:41:34.514Z,10.1
2017-04-15T01:41:45.060Z,10.1
2017-04-15T01:41:54.499Z,10.2
2017-04-15T01:42:04.497Z,10.1
2017-04-15T01:42:14.488Z,10.1
2017-04-15T01:42:24.482Z,10.1
2017-04-15T01:42:34.477Z,10.1
2017-04-15T01:42:43.802Z,10.1
2017-04-15T01:42:54.463Z,10.1
2017-04-15T01:43:04.460Z,10.1
2017-04-15T01:43:14.453Z,10.1
2017-04-15T01:43:24.450Z,10.1
2017-04-15T01:43:34.441Z,10.1
2017-04-15T01:43:44.433Z,10.2
2017-04-15T01:43:54.433Z,10.2
2017-04-15T01:44:04.089Z,10.2
2017-04-15T01:44:14.428Z,10.2
2017-04-15T01:44:24.409Z,10.2
2017-04-15T01:44:34.410Z,10.2
2017-04-15T01:44:44.067Z,10.2
2017-04-15T01:44:54.604Z,10.2
2017-04-15T01:45:04.211Z,10.2
2017-04-15T01:45:14.381Z,10.2
2017-04-15T01:45:24.041Z,10.2
2017-04-15T01:45:34.367Z,10.2
2017-04-15T01:45:44.046Z,10.2
2017-04-15T01:45:54.357Z,10.2
2017-04-15T01:46:04.017Z,10.2
2017-04-15T01:46:14.415Z,10.2
2017-04-15T01:46:24.345Z,10.2
2017-04-15T01:46:34.336Z,10.2
2017-04-15T01:46:44.577Z,10.2
2017-04-15T01:46:54.324Z,10.2
2017-04-15T01:47:03.981Z,10.2
2017-04-15T01:47:14.306Z,10.2
2017-04-15T01:47:24.002Z,10.2
2017-04-15T01:47:34.297Z,10.2
2017-04-15T01:47:44.291Z,10.2
2017-04-15T01:47:54.287Z,10.2
2017-04-15T01:48:04.280Z,10.2
2017-04-15T01:48:14.276Z,10.2
2017-04-15T01:48:23.599Z,10.2
2017-04-15T01:48:34.259Z,10.2
2017-04-15T01:48:44.265Z,10.2
2017-04-15T01:48:54.254Z,10.2
2017-04-15T01:49:04.242Z,10.2
2017-04-15T01:49:14.240Z,10.2
2017-04-15T01:49:24.234Z,10.2
2017-04-15T01:49:34.240Z,10.2
2017-04-15T01:49:44.219Z,10.2
2017-04-15T01:49:53.884Z,10.2
2017-04-15T01:50:03.892Z,10.2
2017-04-15T01:50:14.202Z,10.2
2017-04-15T01:50:24.194Z,10.2
2017-04-15T01:50:34.204Z,10.2
2017-04-15T01:50:43.857Z,10.1
2017-04-15T01:50:54.180Z,10.1
2017-04-15T01:51:04.171Z,10.1
2017-04-15T01:51:14.165Z,10.1
2017-04-15T01:51:24.161Z,10.1
2017-04-15T01:51:34.154Z,10.1
2017-04-15T01:51:43.812Z,10.2
2017-04-15T01:51:54.141Z,10.2
2017-04-15T01:52:03.804Z,10.2
2017-04-15T01:52:14.133Z,10.2
2017-04-15T01:52:24.129Z,10.2
2017-04-15T01:52:34.117Z,10.2
2017-04-15T01:52:44.110Z,10.2
2017-04-15T01:52:53.774Z,10.1
2017-04-15T01:53:04.099Z,10.1
2017-04-15T01:53:14.096Z,10.2
2017-04-15T01:53:24.087Z,10.1
2017-04-15T01:53:34.085Z,10.1
2017-04-15T01:53:43.404Z,10.1
2017-04-15T01:53:54.429Z,10.1
2017-04-15T01:54:04.065Z,10.1
2017-04-15T01:54:14.057Z,10.1
2017-04-15T01:54:24.055Z,10.2
2017-04-15T01:54:34.048Z,10.2
2017-04-15T01:54:44.038Z,10.2
2017-04-15T01:54:54.035Z,10.1
2017-04-15T01:55:04.032Z,10.1
2017-04-15T01:55:14.017Z,10.1
2017-04-15T01:55:24.016Z,10.2
2017-04-15T01:55:34.010Z,10.1
2017-04-15T01:55:44.004Z,10.2
2017-04-15T01:55:54.364Z,10.1
2017-04-15T01:56:03.993Z,10.1
2017-04-15T01:56:13.655Z,10.1
2017-04-15T01:56:23.982Z,10.2
2017-04-15T01:56:33.974Z,10.1
2017-04-15T01:56:44.220Z,10.1
2017-04-15T01:56:53.960Z,10.2
2017-04-15T01:57:03.656Z,10.2
2017-04-15T01:57:13.951Z,10.1
2017-04-15T01:57:23.947Z,10.2
2017-04-15T01:57:33.940Z,10.2
2017-04-15T01:57:43.932Z,10.2
2017-04-15T01:57:54.163Z,10.2
2017-04-15T01:58:03.919Z,10.2
2017-04-15T01:58:13.923Z,10.2
2017-04-15T01:58:23.908Z,10.2
2017-04-15T01:58:33.571Z,10.2
2017-04-15T01:58:43.898Z,10.2
2017-04-15T01:58:53.895Z,10.2
2017-04-15T01:59:03.550Z,10.2
2017-04-15T01:59:13.882Z,10.2
2017-04-15T01:59:23.881Z,10.2
2017-04-15T01:59:34.224Z,10.2
2017-04-15T01:59:43.858Z,10.2
2017-04-15T01:59:53.854Z,10.2
2017-04-15T02:00:03.869Z,10.2
2017-04-15T02:00:13.846Z,10.2
2017-04-15T02:00:23.837Z,10.2
2017-04-15T02:00:34.185Z,10.2
2017-04-15T02:00:43.824Z,10.2
2017-04-15T02:00:53.824Z,10.2
2017-04-15T02:01:03.811Z,10.2
2017-04-15T02:01:14.162Z,10.2
2017-04-15T02:01:23.801Z,10.2
2017-04-15T02:01:33.797Z,10.2
2017-04-15T02:01:44.039Z,10.2
2017-04-15T02:01:53.468Z,10.2
2017-04-15T02:02:03.776Z,10.2
2017-04-15T02:02:13.773Z,10.2
2017-04-15T02:02:23.764Z,10.2
2017-04-15T02:02:33.761Z,10.2
2017-04-15T02:02:43.756Z,10.2
2017-04-15T02:02:53.746Z,10.2
2017-04-15T02:03:03.937Z,10.2
2017-04-15T02:03:13.753Z,10.2
2017-04-15T02:03:23.731Z,10.2
2017-04-15T02:03:33.728Z,10.2
2017-04-15T02:03:43.719Z,10.2
2017-04-15T02:03:53.716Z,10.2
2017-04-15T02:04:04.058Z,10.2
2017-04-15T02:04:13.697Z,10.2
2017-04-15T02:04:23.692Z,10.2
2017-04-15T02:04:33.357Z,10.2
2017-04-15T02:04:43.679Z,10.2
2017-04-15T02:04:53.342Z,10.2
2017-04-15T02:05:03.338Z,10.2
2017-04-15T02:05:13.669Z,10.2
2017-04-15T02:05:22.653Z,10.2
2017-04-15T02:05:33.315Z,10.2
2017-04-15T02:05:43.648Z,10.2
2017-04-15T02:05:53.307Z,10.3
2017-04-15T02:06:03.637Z,10.3
2017-04-15T02:06:13.628Z,10.3
2017-04-15T02:06:23.814Z,10.3
2017-04-15T02:06:33.617Z,10.3
2017-04-15T02:06:43.622Z,10.2
2017-04-15T02:06:53.603Z,10.2
2017-04-15T02:07:03.600Z,10.3
2017-04-15T02:07:13.593Z,10.3
2017-04-15T02:07:23.588Z,10.3
2017-04-15T02:07:33.582Z,10.2
2017-04-15T02:07:43.928Z,10.3
2017-04-15T02:07:53.568Z,10.3
2017-04-15T02:08:03.573Z,10.3
2017-04-15T02:08:13.555Z,10.2
2017-04-15T02:08:23.553Z,10.2
2017-04-15T02:08:33.209Z,10.2
2017-04-15T02:08:43.575Z,10.2
2017-04-15T02:08:53.901Z,10.2
2017-04-15T02:09:03.524Z,10.2
2017-04-15T02:09:13.520Z,10.2
2017-04-15T02:09:23.517Z,10.2
2017-04-15T02:09:33.175Z,10.2
2017-04-15T02:09:43.505Z,10.2
2017-04-15T02:09:53.497Z,10.2
2017-04-15T02:10:03.514Z,10.2
2017-04-15T02:10:13.485Z,10.2
2017-04-15T02:10:23.480Z,10.2
2017-04-15T02:10:33.474Z,10.2
2017-04-15T02:10:43.466Z,10.2
2017-04-15T02:10:53.125Z,10.2
2017-04-15T02:11:03.457Z,10.2
2017-04-15T02:11:13.451Z,10.2
2017-04-15T02:11:23.443Z,10.2
2017-04-15T02:11:33.437Z,10.2
2017-04-15T02:11:43.434Z,10.2
2017-04-15T02:11:53.423Z,10.2
2017-04-15T02:12:03.420Z,10.2
2017-04-15T02:12:13.411Z,10.2
2017-04-15T02:12:23.414Z,10.2
2017-04-15T02:12:33.402Z,10.2
2017-04-15T02:12:43.399Z,10.2
2017-04-15T02:12:53.390Z,10.2
2017-04-15T02:13:03.382Z,10.2
2017-04-15T02:13:13.379Z,10.2
2017-04-15T02:13:23.373Z,10.2
2017-04-15T02:13:33.718Z,10.2
2017-04-15T02:13:43.362Z,10.2
2017-04-15T02:13:53.354Z,10.2
2017-04-15T02:14:03.347Z,10.2
2017-04-15T02:14:13.007Z,10.2
2017-04-15T02:14:23.340Z,10.2
2017-04-15T02:14:33.330Z,10.2
2017-04-15T02:14:42.989Z,10.2
2017-04-15T02:14:53.321Z,10.2
2017-04-15T02:15:03.310Z,10.2
2017-04-15T02:15:13.303Z,10.2
2017-04-15T02:15:22.989Z,10.2
2017-04-15T02:15:33.298Z,10.2
2017-04-15T02:15:43.288Z,10.2